createdAt,value
2022-08-03T00:01:04.779Z,97856.88
2022-08-03T00:03:39.295Z,97846.47
2022-08-03T00:06:40.344Z,97853.59
2022-08-03T00:15:27.431Z,97843.19
2022-08-03T00:24:45.135Z,97849.44
2022-08-03T00:27:42.294Z,97844.25
2022-08-03T00:30:21.320Z,97856.00
2022-08-03T00:33:16.959Z,97853.78
2022-08-03T00:36:16.684Z,97859.53
2022-08-03T00:39:24.521Z,97857.34
2022-08-03T00:42:04.078Z,97852.13
2022-08-03T00:44:53.501Z,97847.22
2022-08-03T00:47:38.311Z,97857.88
2022-08-03T00:50:55.956Z,97852.38
2022-08-03T00:53:22.318Z,97849.38
2022-08-03T00:57:03.940Z,97856.47
2022-08-03T01:02:42.410Z,97854.56
2022-08-03T01:05:24.387Z,97850.16
2022-08-03T01:08:13.154Z,97852.34
2022-08-03T01:11:02.469Z,97846.56
2022-08-03T01:14:17.882Z,97849.31
2022-08-03T01:16:52.033Z,97845.50
2022-08-03T01:19:50.545Z,97850.94
2022-08-03T01:23:10.237Z,97857.19
2022-08-03T01:26:15.097Z,97858.00
2022-08-03T01:29:22.172Z,97854.19
2022-08-03T01:32:58.850Z,97856.91
2022-08-03T01:35:24.858Z,97858.00
2022-08-03T01:38:04.691Z,97860.16
2022-08-03T01:40:43.242Z,97856.56
2022-08-03T01:44:26.926Z,97845.03
2022-08-03T01:46:36.360Z,97850.78
2022-08-03T01:49:17.541Z,97845.88
2022-08-03T01:52:10.529Z,97846.94
2022-08-03T01:54:57.251Z,97848.03
2022-08-03T01:57:32.890Z,97839.25
2022-08-03T02:00:23.550Z,97839.50
2022-08-03T02:03:01.816Z,97837.06
2022-08-03T02:05:46.200Z,97834.00
2022-08-03T02:08:40.313Z,97835.13
2022-08-03T02:11:16.922Z,97836.16
2022-08-03T02:14:00.708Z,97831.00
2022-08-03T02:16:52.219Z,97832.31
2022-08-03T02:19:25.024Z,97828.50
2022-08-03T02:22:14.591Z,97832.31
2022-08-03T02:24:58.933Z,97836.13
2022-08-03T02:27:43.195Z,97834.19
2022-08-03T02:30:19.653Z,97847.28
2022-08-03T02:33:00.090Z,97833.31
2022-08-03T02:35:41.368Z,97837.94
2022-08-03T02:38:31.054Z,97830.56
2022-08-03T02:41:14.290Z,97830.25
2022-08-03T02:44:06.616Z,97835.47
2022-08-03T02:46:44.815Z,97831.88
2022-08-03T02:49:49.530Z,97828.06
2022-08-03T02:52:21.193Z,97831.56
2022-08-03T02:55:03.726Z,97833.22
2022-08-03T02:57:45.039Z,97828.00
2022-08-03T03:00:49.903Z,97828.53
2022-08-03T03:03:39.984Z,97830.66
2022-08-03T03:06:33.760Z,97828.22
2022-08-03T03:09:23.795Z,97828.22
2022-08-03T03:12:19.944Z,97833.31
2022-08-03T03:15:12.203Z,97836.03
2022-08-03T03:17:50.119Z,97837.66
2022-08-03T03:20:39.071Z,97834.69
2022-08-03T03:23:15.462Z,97834.34
2022-08-03T03:26:03.275Z,97829.13
2022-08-03T03:28:51.303Z,97826.28
2022-08-03T03:34:31.524Z,97822.78
2022-08-03T03:37:07.465Z,97827.78
2022-08-03T03:39:51.843Z,97824.69
2022-08-03T03:42:43.807Z,97827.34
2022-08-03T03:45:19.450Z,97832.28
2022-08-03T03:47:55.210Z,97828.13
2022-08-03T03:50:48.230Z,97834.75
2022-08-03T03:53:34.810Z,97828.38
2022-08-03T03:56:23.397Z,97832.75
2022-08-03T03:59:06.086Z,97834.09
2022-08-03T04:02:01.471Z,97831.31
2022-08-03T04:04:58.021Z,97833.22
2022-08-03T04:07:45.507Z,97834.03
2022-08-03T04:10:39.423Z,97835.56
2022-08-03T04:13:24.997Z,97838.81
2022-08-03T04:16:17.149Z,97829.34
2022-08-03T04:19:13.791Z,97834.19
2022-08-03T04:22:11.288Z,97839.19
2022-08-03T04:25:04.994Z,97844.84
2022-08-03T04:28:29.285Z,97845.03
2022-08-03T04:31:00.911Z,97848.41
2022-08-03T04:33:38.604Z,97845.69
2022-08-03T04:36:25.606Z,97843.19
2022-08-03T04:39:13.371Z,97842.97
2022-08-03T04:42:02.331Z,97851.38
2022-08-03T04:45:04.956Z,97847.31
2022-08-03T04:47:42.004Z,97852.16
2022-08-03T04:50:26.233Z,97853.28
2022-08-03T04:53:02.376Z,97861.69
2022-08-03T04:55:52.472Z,97856.50
2022-08-03T04:58:39.496Z,97863.75
2022-08-03T05:01:16.779Z,97852.88
2022-08-03T05:03:56.076Z,97860.06
2022-08-03T05:06:35.970Z,97856.94
2022-08-03T05:09:50.170Z,97856.16
2022-08-03T05:12:32.355Z,97856.44
2022-08-03T05:15:09.874Z,97863.16
2022-08-03T05:17:54.739Z,97856.25
2022-08-03T05:20:31.954Z,97864.59
2022-08-03T05:23:15.451Z,97859.50
2022-08-03T05:25:50.042Z,97857.97
2022-08-03T05:28:19.410Z,97862.84
2022-08-03T05:30:47.206Z,97866.44
2022-08-03T05:33:15.075Z,97863.63
2022-08-03T05:36:02.141Z,97866.41
2022-08-03T05:38:34.744Z,97867.44
2022-08-03T05:43:49.104Z,97869.38
2022-08-03T05:46:17.085Z,97870.28
2022-08-03T05:48:45.134Z,97862.31
2022-08-03T05:51:13.546Z,97873.44
2022-08-03T05:53:41.942Z,97874.09
2022-08-03T05:56:13.874Z,97868.34
2022-08-03T05:58:42.953Z,97870.53
2022-08-03T06:01:12.009Z,97875.94
2022-08-03T06:03:39.734Z,97873.81
2022-08-03T06:06:07.521Z,97872.19
2022-08-03T06:08:35.458Z,97868.34
2022-08-03T06:11:03.495Z,97879.28
2022-08-03T06:13:31.189Z,97879.84
2022-08-03T06:15:58.872Z,97879.31
2022-08-03T06:18:27.836Z,97878.19
2022-08-03T06:20:55.857Z,97881.41
2022-08-03T06:23:54.683Z,97880.00
2022-08-03T06:26:16.561Z,97876.53
2022-08-03T06:28:51.587Z,97866.72
2022-08-03T06:31:22.735Z,97869.72
2022-08-03T06:34:33.833Z,97870.28
2022-08-03T06:37:19.073Z,97873.25
2022-08-03T06:39:58.255Z,97870.28
2022-08-03T06:42:25.885Z,97864.25
2022-08-03T06:44:53.792Z,97865.34
2022-08-03T06:47:21.574Z,97868.63
2022-08-03T06:50:12.755Z,97878.75
2022-08-03T06:52:44.284Z,97884.78
2022-08-03T06:55:13.352Z,97880.13
2022-08-03T06:57:41.001Z,97880.38
2022-08-03T07:00:12.379Z,97887.78
2022-08-03T07:02:49.238Z,97883.94
2022-08-03T07:05:22.506Z,97880.09
2022-08-03T07:11:02.893Z,97870.69
2022-08-03T07:13:34.432Z,97882.88
2022-08-03T07:16:02.204Z,97878.34
2022-08-03T07:18:30.373Z,97877.19
2022-08-03T07:21:19.920Z,97877.09
2022-08-03T07:24:13.992Z,97878.66
2022-08-03T07:27:16.437Z,97874.03
2022-08-03T07:33:24.946Z,97869.03
2022-08-03T07:35:59.890Z,97873.94
2022-08-03T07:38:30.118Z,97868.22
2022-08-03T07:40:58.002Z,97870.84
2022-08-03T07:43:25.744Z,97873.59
2022-08-03T07:45:53.641Z,97872.97
2022-08-03T07:48:21.541Z,97874.09
2022-08-03T07:50:49.633Z,97879.56
2022-08-03T07:53:17.863Z,97869.78
2022-08-03T07:55:47.162Z,97872.63
2022-08-03T07:58:22.054Z,97871.31
2022-08-03T08:00:53.402Z,97869.94
2022-08-03T08:03:26.639Z,97867.25
2022-08-03T08:05:54.911Z,97865.97
2022-08-03T08:08:22.780Z,97862.59
2022-08-03T08:10:58.450Z,97860.66
2022-08-03T08:13:28.936Z,97866.63
2022-08-03T08:15:56.710Z,97849.44
2022-08-03T08:18:24.989Z,97858.88
2022-08-03T08:20:53.299Z,97865.97
2022-08-03T08:23:41.533Z,97853.75
2022-08-03T08:26:19.943Z,97866.84
2022-08-03T08:28:48.174Z,97858.03
2022-08-03T08:31:16.126Z,97855.13
2022-08-03T08:36:32.668Z,97845.72
2022-08-03T08:39:00.964Z,97844.19
2022-08-03T08:41:33.685Z,97846.53
2022-08-03T08:44:01.809Z,97855.69
2022-08-03T08:46:33.272Z,97849.97
2022-08-03T08:49:04.974Z,97851.59
2022-08-03T08:51:54.979Z,97853.47
2022-08-03T08:54:26.952Z,97845.97
2022-08-03T08:56:59.267Z,97845.06
2022-08-03T08:59:27.906Z,97841.44
2022-08-03T09:02:15.782Z,97834.34
2022-08-03T09:04:45.658Z,97841.78
2022-08-03T09:07:19.942Z,97843.41
2022-08-03T09:10:11.418Z,97841.09
2022-08-03T09:12:42.615Z,97839.81
2022-08-03T09:15:21.785Z,97827.66
2022-08-03T09:17:51.404Z,97836.69
2022-08-03T09:20:20.454Z,97829.25
2022-08-03T09:22:59.681Z,97822.34
2022-08-03T09:25:36.571Z,97832.50
2022-08-03T09:28:10.766Z,97825.00
2022-08-03T09:30:40.049Z,97824.66
2022-08-03T09:33:09.639Z,97826.06
2022-08-03T09:35:58.833Z,97826.72
2022-08-03T09:38:27.448Z,97831.72
2022-08-03T09:41:00.295Z,97824.34
2022-08-03T09:43:30.210Z,97822.88
2022-08-03T09:46:04.808Z,97819.97
2022-08-03T09:48:38.458Z,97817.94
2022-08-03T09:51:13.240Z,97816.78
2022-08-03T09:54:00.234Z,97823.81
2022-08-03T09:56:43.059Z,97832.19
2022-08-03T09:59:13.495Z,97817.31
2022-08-03T10:01:44.320Z,97818.75
2022-08-03T10:04:17.030Z,97823.53
2022-08-03T10:07:03.830Z,97822.78
2022-08-03T10:09:31.460Z,97822.03
2022-08-03T10:12:07.790Z,97815.06
2022-08-03T10:14:38.777Z,97809.50
2022-08-03T10:17:06.746Z,97812.03
2022-08-03T10:19:34.765Z,97802.00
2022-08-03T10:22:04.913Z,97802.53
2022-08-03T10:24:37.131Z,97800.31
2022-08-03T10:27:07.196Z,97807.88
2022-08-03T10:29:39.492Z,97796.09
2022-08-03T10:32:14.709Z,97800.44
2022-08-03T10:34:45.449Z,97791.13
2022-08-03T10:37:16.504Z,97788.97
2022-08-03T10:39:54.211Z,97782.91
2022-08-03T10:42:24.810Z,97780.09
2022-08-03T10:45:04.303Z,97780.16
2022-08-03T10:47:33.661Z,97772.34
2022-08-03T10:50:05.904Z,97771.47
2022-08-03T10:52:36.058Z,97776.41
2022-08-03T10:55:51.403Z,97767.63
2022-08-03T10:58:53.402Z,97771.25
2022-08-03T11:02:00.672Z,97767.53
2022-08-03T11:04:38.852Z,97757.81
2022-08-03T11:07:25.092Z,97766.38
2022-08-03T11:09:53.949Z,97757.94
2022-08-03T11:12:31.148Z,97757.81
2022-08-03T11:15:07.253Z,97755.13
2022-08-03T11:17:46.365Z,97749.44
2022-08-03T11:20:54.360Z,97750.72
2022-08-03T11:24:04.172Z,97750.25
2022-08-03T11:26:29.619Z,97747.50
2022-08-03T11:29:28.762Z,97749.78
2022-08-03T11:31:56.750Z,97736.09
2022-08-03T11:34:32.085Z,97735.09
2022-08-03T11:37:28.715Z,97736.09
2022-08-03T11:39:59.534Z,97732.16
2022-08-03T11:42:45.314Z,97731.84
2022-08-03T11:45:13.809Z,97729.09
2022-08-03T11:47:50.122Z,97724.69
2022-08-03T11:50:24.547Z,97729.97
2022-08-03T11:52:52.514Z,97733.16
2022-08-03T11:55:25.033Z,97734.97
2022-08-03T11:58:58.316Z,97733.47
2022-08-03T12:00:48.804Z,97723.22
2022-08-03T12:03:18.044Z,97728.53
2022-08-03T12:05:51.675Z,97728.44
2022-08-03T12:08:31.051Z,97727.31
2022-08-03T12:11:09.091Z,97713.47
2022-08-03T12:14:45.436Z,97717.50
2022-08-03T12:16:30.089Z,97715.03
2022-08-03T12:18:58.878Z,97711.97
2022-08-03T12:21:31.241Z,97708.69
2022-08-03T12:24:00.470Z,97718.47
2022-08-03T12:26:29.415Z,97710.19
2022-08-03T12:28:57.219Z,97700.25
2022-08-03T12:31:25.326Z,97709.81
2022-08-03T12:33:58.866Z,97708.03
2022-08-03T12:36:28.906Z,97713.53
2022-08-03T12:38:57.976Z,97712.09
2022-08-03T12:41:35.376Z,97700.28
2022-08-03T12:44:04.429Z,97697.28
2022-08-03T12:46:34.192Z,97698.59
2022-08-03T12:49:11.143Z,97698.56
2022-08-03T12:52:03.907Z,97697.53
2022-08-03T12:54:36.019Z,97686.28
2022-08-03T12:57:05.601Z,97685.63
2022-08-03T12:59:40.653Z,97687.56
2022-08-03T13:02:17.906Z,97676.63
2022-08-03T13:05:10.749Z,97674.41
2022-08-03T13:07:49.013Z,97673.94
2022-08-03T13:10:29.218Z,97667.66
2022-08-03T13:13:06.765Z,97668.47
2022-08-03T13:15:48.046Z,97664.69
2022-08-03T13:18:17.614Z,97665.16
2022-08-03T13:21:20.318Z,97663.13
2022-08-03T13:24:35.626Z,97668.09
2022-08-03T13:27:59.402Z,97668.63
2022-08-03T13:30:30.694Z,97667.00
2022-08-03T13:33:00.656Z,97662.53
2022-08-03T13:35:36.004Z,97667.16
2022-08-03T13:38:45.552Z,97661.56
2022-08-03T13:41:15.556Z,97653.44
2022-08-03T13:43:47.215Z,97656.91
2022-08-03T13:46:22.285Z,97650.81
2022-08-03T13:48:49.939Z,97646.66
2022-08-03T13:51:22.386Z,97648.53
2022-08-03T13:54:01.385Z,97645.97
2022-08-03T13:58:06.173Z,97636.59
2022-08-03T14:00:27.134Z,97634.75
2022-08-03T14:03:04.034Z,97628.09
2022-08-03T14:05:37.891Z,97631.63
2022-08-03T14:08:06.904Z,97627.34
2022-08-03T14:14:24.733Z,97627.28
2022-08-03T14:16:55.349Z,97627.34
2022-08-03T14:19:54.759Z,97619.50
2022-08-03T14:22:22.757Z,97619.50
2022-08-03T14:24:50.346Z,97620.44
2022-08-03T14:27:19.410Z,97620.56
2022-08-03T14:29:49.172Z,97609.78
2022-08-03T14:32:16.957Z,97611.13
2022-08-03T14:34:47.296Z,97609.25
2022-08-03T14:37:27.258Z,97609.31
2022-08-03T14:40:58.429Z,97604.81
2022-08-03T14:43:27.129Z,97606.00
2022-08-03T14:46:10.689Z,97607.13
2022-08-03T14:50:34.601Z,97606.19
2022-08-03T14:51:25.960Z,97604.75
2022-08-03T14:53:59.503Z,97596.84
2022-08-03T14:56:27.229Z,97593.81
2022-08-03T14:58:54.886Z,97602.34
2022-08-03T15:02:03.144Z,97590.94
2022-08-03T15:04:11.566Z,97579.78
2022-08-03T15:06:39.291Z,97585.50
2022-08-03T15:09:21.714Z,97585.75
2022-08-03T15:11:51.104Z,97581.75
2022-08-03T15:14:20.070Z,97587.31
2022-08-03T15:16:57.471Z,97582.69
2022-08-03T15:20:02.355Z,97574.22
2022-08-03T15:22:34.858Z,97571.38
2022-08-03T15:25:03.503Z,97578.75
2022-08-03T15:27:31.138Z,97581.69
2022-08-03T15:30:05.299Z,97579.50
2022-08-03T15:32:38.701Z,97577.03
2022-08-03T15:35:07.929Z,97570.03
2022-08-03T15:37:35.840Z,97575.31
2022-08-03T15:40:03.591Z,97571.34
2022-08-03T15:42:32.178Z,97571.56
2022-08-03T15:45:02.915Z,97577.09
2022-08-03T15:47:30.583Z,97575.28
2022-08-03T15:49:59.639Z,97576.66
2022-08-03T15:52:27.806Z,97573.75
2022-08-03T15:54:55.380Z,97574.50
2022-08-03T15:57:23.473Z,97572.94
2022-08-03T15:59:51.892Z,97579.31
2022-08-03T16:02:19.879Z,97577.41
2022-08-03T16:04:47.467Z,97571.13
2022-08-03T16:07:36.767Z,97565.00
2022-08-03T16:10:05.563Z,97560.34
2022-08-03T16:12:42.809Z,97558.13
2022-08-03T16:15:16.480Z,97558.25
2022-08-03T16:17:44.482Z,97555.16
2022-08-03T16:20:33.842Z,97557.75
2022-08-03T16:23:08.446Z,97561.03
2022-08-03T16:25:39.790Z,97557.50
2022-08-03T16:28:13.424Z,97555.41
2022-08-03T16:30:44.091Z,97549.22
2022-08-03T16:33:16.871Z,97550.06
2022-08-03T16:35:44.920Z,97545.00
2022-08-03T16:38:18.867Z,97541.59
2022-08-03T16:40:51.467Z,97545.72
2022-08-03T16:43:20.073Z,97542.22
2022-08-03T16:45:48.776Z,97536.41
2022-08-03T16:48:17.223Z,97538.13
2022-08-03T16:50:45.382Z,97539.66
2022-08-03T16:53:16.477Z,97536.75
2022-08-03T16:55:51.979Z,97539.06
2022-08-03T16:58:24.487Z,97541.44
2022-08-03T17:01:10.920Z,97537.50
2022-08-03T17:04:02.816Z,97542.56
2022-08-03T17:06:34.087Z,97544.38
2022-08-03T17:09:08.882Z,97542.44
2022-08-03T17:11:38.878Z,97543.34
2022-08-03T17:14:12.089Z,97539.22
2022-08-03T17:16:40.236Z,97544.97
2022-08-03T17:19:23.155Z,97551.44
2022-08-03T17:22:01.240Z,97545.16
2022-08-03T17:24:33.957Z,97545.84
2022-08-03T17:27:09.046Z,97550.97
2022-08-03T17:29:48.687Z,97553.56
2022-08-03T17:32:21.306Z,97553.31
2022-08-03T17:34:49.893Z,97550.34
2022-08-03T17:37:50.061Z,97553.09
2022-08-03T17:40:08.405Z,97555.47
2022-08-03T17:42:37.382Z,97548.66
2022-08-03T17:45:06.565Z,97557.84
2022-08-03T17:47:42.714Z,97562.75
2022-08-03T17:50:23.958Z,97556.38
2022-08-03T17:53:07.569Z,97550.38
2022-08-03T17:55:59.093Z,97559.25
2022-08-03T17:58:43.732Z,97558.47
2022-08-03T18:02:00.018Z,97559.50
2022-08-03T18:04:29.601Z,97557.88
2022-08-03T18:07:00.461Z,97558.88
2022-08-03T18:10:03.865Z,97557.41
2022-08-03T18:12:57.561Z,97565.41
2022-08-03T18:15:32.011Z,97565.13
2022-08-03T18:18:32.381Z,97560.25
2022-08-03T18:21:16.994Z,97565.94
2022-08-03T18:23:50.952Z,97564.19
2022-08-03T18:26:20.137Z,97572.31
2022-08-03T18:28:56.927Z,97561.72
2022-08-03T18:31:33.237Z,97570.34
2022-08-03T18:34:32.885Z,97575.06
2022-08-03T18:37:07.738Z,97574.09
2022-08-03T18:39:50.295Z,97577.97
2022-08-03T18:42:26.270Z,97572.56
2022-08-03T18:44:57.019Z,97571.59
2022-08-03T18:47:50.655Z,97576.44
2022-08-03T18:50:32.134Z,97579.06
2022-08-03T18:56:28.112Z,97579.00
2022-08-03T18:59:16.828Z,97591.19
2022-08-03T19:02:13.129Z,97585.47
2022-08-03T19:04:54.860Z,97591.72
2022-08-03T19:07:35.918Z,97590.59
2022-08-03T19:10:09.483Z,97589.72
2022-08-03T19:12:40.617Z,97591.06
2022-08-03T19:15:18.631Z,97599.78
2022-08-03T19:18:20.291Z,97598.81
2022-08-03T19:20:55.843Z,97601.19
2022-08-03T19:23:33.927Z,97595.03
2022-08-03T19:26:30.655Z,97598.72
2022-08-03T19:29:03.508Z,97600.03
2022-08-03T19:31:36.541Z,97599.38
2022-08-03T19:34:07.276Z,97605.03
2022-08-03T19:36:51.842Z,97605.66
2022-08-03T19:39:19.875Z,97601.38
2022-08-03T19:45:11.423Z,97608.00
2022-08-03T19:48:11.482Z,97610.75
2022-08-03T19:50:51.358Z,97614.34
2022-08-03T19:53:35.454Z,97611.78
2022-08-03T19:56:12.764Z,97610.88
2022-08-03T19:58:53.260Z,97610.81
2022-08-03T20:01:28.242Z,97609.44
2022-08-03T20:03:59.421Z,97609.66
2022-08-03T20:06:33.717Z,97601.31
2022-08-03T20:09:12.772Z,97608.50
2022-08-03T20:11:55.742Z,97603.00
2022-08-03T20:14:32.844Z,97601.00
2022-08-03T20:17:01.194Z,97601.88
2022-08-03T20:19:35.180Z,97608.03
2022-08-03T20:22:14.312Z,97616.56
2022-08-03T20:24:52.331Z,97611.03
2022-08-03T20:27:30.444Z,97609.19
2022-08-03T20:30:06.953Z,97611.69
2022-08-03T20:32:52.308Z,97609.97
2022-08-03T20:35:28.059Z,97614.91
2022-08-03T20:38:00.457Z,97613.78
2022-08-03T20:40:34.899Z,97608.53
2022-08-03T20:43:06.051Z,97614.38
2022-08-03T20:45:59.577Z,97605.78
2022-08-03T20:48:30.531Z,97605.00
2022-08-03T20:50:58.674Z,97595.66
2022-08-03T20:53:57.465Z,97598.94
2022-08-03T20:56:25.419Z,97601.81
2022-08-03T20:58:56.226Z,97612.34
2022-08-03T21:01:36.468Z,97604.38
2022-08-03T21:04:11.281Z,97612.72
2022-08-03T21:06:57.879Z,97600.25
2022-08-03T21:09:43.093Z,97608.31
2022-08-03T21:12:19.939Z,97610.03
2022-08-03T21:13:09.041Z,97578.53
2022-08-03T21:15:09.668Z,97610.50
2022-08-03T21:18:09.638Z,97607.38
2022-08-03T21:20:46.050Z,97609.78
2022-08-03T21:23:39.899Z,97602.84
2022-08-03T21:26:18.689Z,97605.06
2022-08-03T21:29:00.649Z,97612.44
2022-08-03T21:31:37.487Z,97611.69
2022-08-03T21:34:09.529Z,97616.91
2022-08-03T21:36:46.913Z,97614.75
2022-08-03T21:39:19.376Z,97613.56
2022-08-03T21:41:49.169Z,97615.88
2022-08-03T21:44:33.959Z,97613.00
2022-08-03T21:47:14.008Z,97611.47
2022-08-03T21:50:06.954Z,97612.00
2022-08-03T21:53:00.961Z,97607.50
2022-08-03T21:55:36.244Z,97615.16
2022-08-03T21:58:21.433Z,97611.47
2022-08-03T22:00:56.400Z,97625.91
2022-08-03T22:03:53.901Z,97613.28
2022-08-03T22:06:33.675Z,97620.22
2022-08-03T22:09:05.497Z,97620.00
2022-08-03T22:11:37.397Z,97615.50
2022-08-03T22:14:07.883Z,97618.53
2022-08-03T22:16:39.503Z,97605.88
2022-08-03T22:19:10.794Z,97615.84
2022-08-03T22:21:47.689Z,97611.97
2022-08-03T23:46:47.138Z,97655.25
2022-08-03T23:50:01.037Z,97650.97
2022-08-03T23:52:48.025Z,97654.50
2022-08-03T23:55:51.079Z,97653.81
2022-08-03T23:58:42.397Z,97647.50
